Time;durP1;ratioP1;P1;durP2;ratioP2;P2;SDS_P1;SDS_P2;PMS_P1;PMS_P2;Temp;Humidity;BMP_temperature;BMP_pressure;BME280_temperature;BME280_humidity;BME280_pressure;Samples;Min_cycle;Max_cycle;Signal;HPM_P1;HPM_P2
2021/12/10 00:02:07;;;;;;;2.67;2.58;;;3.40;99.90;;;;;;5073451;28;20198;-76
2021/12/10 00:04:38;;;;;;;1.98;1.20;;;3.40;99.90;;;;;;5073695;28;20194;-75
2021/12/10 00:07:10;;;;;;;0.60;0.60;;;3.40;99.90;;;;;;5072846;28;20576;-76
2021/12/10 00:09:41;;;;;;;3.15;1.50;;;3.40;99.90;;;;;;5073136;28;20224;-76
2021/12/10 00:12:15;;;;;;;1.15;1.15;;;3.40;99.90;;;;;;5073779;28;20192;-76
2021/12/10 00:14:42;;;;;;;0.50;0.50;;;3.40;99.90;;;;;;5073437;28;20722;-77
2021/12/10 00:17:12;;;;;;;1.00;0.60;;;3.40;99.90;;;;;;5073611;28;20221;-74
2021/12/10 00:19:47;;;;;;;0.88;0.85;;;3.40;99.90;;;;;;5072991;28;20224;-76
2021/12/10 00:22:19;;;;;;;0.70;0.60;;;3.30;99.90;;;;;;5073403;28;20180;-76
2021/12/10 00:24:48;;;;;;;0.68;0.68;;;3.30;99.90;;;;;;5073515;28;20185;-75
2021/12/10 00:27:16;;;;;;;2.38;1.23;;;3.20;99.90;;;;;;5072943;28;20710;-76
2021/12/10 00:29:49;;;;;;;0.70;0.70;;;3.20;99.90;;;;;;5072489;28;20602;-76
2021/12/10 00:32:25;;;;;;;0.40;0.30;;;3.20;99.90;;;;;;5073718;28;20277;-76
2021/12/10 00:34:53;;;;;;;6.25;1.90;;;3.20;99.90;;;;;;5073571;28;20182;-76
2021/12/10 00:37:23;;;;;;;0.90;0.90;;;3.20;99.90;;;;;;5073042;28;20218;-76
2021/12/10 00:39:54;;;;;;;2.05;1.77;;;3.20;99.90;;;;;;5072580;28;20687;-74
2021/12/10 00:42:25;;;;;;;1.58;0.73;;;3.30;99.90;;;;;;5072876;28;20654;-76
2021/12/10 00:44:52;;;;;;;0.93;0.90;;;3.30;99.90;;;;;;5073003;28;20544;-76
2021/12/10 00:47:19;;;;;;;0.60;0.57;;;3.30;99.90;;;;;;5073111;28;20236;-77
2021/12/10 00:49:46;;;;;;;0.40;0.40;;;3.40;99.90;;;;;;5072416;28;20214;-77
2021/12/10 00:52:15;;;;;;;1.70;0.60;;;3.40;99.90;;;;;;5072855;28;20194;-76
2021/12/10 00:54:42;;;;;;;10.32;2.05;;;3.40;99.90;;;;;;5072980;28;20208;-76
2021/12/10 00:57:10;;;;;;;3.58;2.72;;;3.40;99.90;;;;;;5072225;28;20220;-77
2021/12/10 00:59:38;;;;;;;0.70;0.70;;;3.50;99.90;;;;;;5072641;28;20193;-76
2021/12/10 01:02:06;;;;;;;0.55;0.55;;;3.50;99.90;;;;;;5072613;28;20536;-76
2021/12/10 01:04:36;;;;;;;1.15;1.00;;;3.50;99.90;;;;;;5072747;28;20198;-76
2021/12/10 01:07:12;;;;;;;1.85;1.75;;;3.60;99.90;;;;;;5072112;28;20218;-76
2021/12/10 01:09:43;;;;;;;1.00;0.95;;;3.60;99.90;;;;;;5072090;28;20209;-76
2021/12/10 01:12:13;;;;;;;0.80;0.80;;;3.60;99.90;;;;;;5072471;28;20197;-75
2021/12/10 01:14:58;;;;;;;0.63;0.63;;;3.60;99.90;;;;;;5072645;28;20570;-76
2021/12/10 01:25:55;;;;;;;0.70;0.60;;;3.60;99.90;;;;;;5071381;28;20174;-76
2021/12/10 01:28:23;;;;;;;0.73;0.73;;;3.70;99.90;;;;;;5072450;28;20186;-76
2021/12/10 01:30:50;;;;;;;1.77;1.25;;;3.70;99.90;;;;;;5071683;28;20719;-73
2021/12/10 01:33:18;;;;;;;1.35;1.25;;;3.70;99.90;;;;;;5072545;28;20198;-77
2021/12/10 01:35:52;;;;;;;0.70;0.70;;;3.70;99.90;;;;;;5071831;28;20212;-76
2021/12/10 01:38:20;;;;;;;1.35;1.25;;;3.70;99.90;;;;;;5072249;28;20185;-77
2021/12/10 01:40:52;;;;;;;0.77;0.77;;;3.70;99.90;;;;;;5071501;28;20194;-76
2021/12/10 01:43:23;;;;;;;2.47;0.98;;;3.70;99.90;;;;;;5072301;28;20178;-76
2021/12/10 01:45:53;;;;;;;1.70;1.60;;;3.70;99.90;;;;;;5072023;28;20255;-76
2021/12/10 01:48:26;;;;;;;0.90;0.80;;;3.70;99.90;;;;;;5071797;28;20194;-77
2021/12/10 01:50:54;;;;;;;1.00;0.80;;;3.70;99.90;;;;;;5071387;28;20229;-76
2021/12/10 01:53:24;;;;;;;1.15;0.88;;;3.60;99.90;;;;;;5072005;28;20198;-76
2021/12/10 01:55:55;;;;;;;4.05;3.15;;;3.60;99.90;;;;;;5071664;28;20205;-76
2021/12/10 01:58:25;;;;;;;0.82;0.52;;;3.50;99.90;;;;;;5071865;28;20204;-76
2021/12/10 02:00:57;;;;;;;3.55;2.28;;;3.40;99.90;;;;;;5071116;28;20201;-74
2021/12/10 02:03:24;;;;;;;2.85;1.90;;;3.40;99.90;;;;;;5071482;28;20198;-76
2021/12/10 02:05:51;;;;;;;2.13;2.03;;;3.30;99.90;;;;;;5071521;28;20665;-77
2021/12/10 02:08:18;;;;;;;0.85;0.85;;;3.30;99.90;;;;;;5072082;28;20193;-76
2021/12/10 02:10:45;;;;;;;0.40;0.40;;;3.30;99.90;;;;;;5071221;28;20706;-76
2021/12/10 02:13:13;;;;;;;0.50;0.50;;;3.30;99.90;;;;;;5071614;28;20683;-76
2021/12/10 02:15:41;;;;;;;0.50;0.50;;;3.20;99.90;;;;;;5071641;28;20202;-76
2021/12/10 02:18:08;;;;;;;4.28;2.45;;;3.20;99.90;;;;;;5071342;28;20707;-77
2021/12/10 02:20:37;;;;;;;0.98;0.98;;;3.20;99.90;;;;;;5070885;28;20194;-76
2021/12/10 02:23:07;;;;;;;1.30;1.20;;;3.10;99.90;;;;;;5071485;28;20206;-76
2021/12/10 02:25:37;;;;;;;0.85;0.70;;;3.10;99.90;;;;;;5071446;28;20560;-76
2021/12/10 02:28:06;;;;;;;0.40;0.40;;;3.10;99.90;;;;;;5071230;28;20229;-76
2021/12/10 02:30:33;;;;;;;0.50;0.50;;;3.10;99.90;;;;;;5073725;28;20214;-76
2021/12/10 02:33:00;;;;;;;2.28;2.08;;;3.00;99.90;;;;;;5075283;28;20189;-76
2021/12/10 02:35:28;;;;;;;0.40;0.40;;;3.00;99.90;;;;;;5075465;28;20199;-76
2021/12/10 02:37:55;;;;;;;0.70;0.70;;;2.90;99.90;;;;;;5075577;28;20225;-76
2021/12/10 02:40:25;;;;;;;1.40;1.38;;;2.90;99.90;;;;;;5075038;28;20197;-76
2021/12/10 02:42:53;;;;;;;0.40;0.40;;;2.90;99.90;;;;;;5075082;28;20198;-76
2021/12/10 02:45:22;;;;;;;0.40;0.40;;;2.90;99.90;;;;;;5074847;28;20209;-76
2021/12/10 02:47:50;;;;;;;2.22;0.88;;;2.90;99.90;;;;;;5075463;28;20254;-75
2021/12/10 02:50:21;;;;;;;1.85;1.15;;;2.90;99.90;;;;;;5074923;28;20583;-76
2021/12/10 02:52:48;;;;;;;0.40;0.30;;;2.90;99.90;;;;;;5074906;28;20678;-76
2021/12/10 02:55:16;;;;;;;0.50;0.50;;;2.90;99.90;;;;;;5074879;28;20619;-77
2021/12/10 02:57:46;;;;;;;0.47;0.47;;;2.90;99.90;;;;;;5074754;28;20218;-76
2021/12/10 03:00:22;;;;;;;0.40;0.40;;;2.90;99.90;;;;;;5074855;28;20197;-76
2021/12/10 03:02:48;;;;;;;0.40;0.40;;;2.90;99.90;;;;;;5074735;28;20202;-76
2021/12/10 03:05:15;;;;;;;0.40;0.30;;;2.90;99.90;;;;;;5075041;28;20194;-76
2021/12/10 03:07:43;;;;;;;4.07;2.95;;;2.90;99.90;;;;;;5074557;28;20218;-76
2021/12/10 03:10:13;;;;;;;3.25;3.05;;;2.80;99.90;;;;;;5074669;28;20339;-74
2021/12/10 03:12:40;;;;;;;4.32;3.58;;;2.80;99.90;;;;;;5074757;28;20198;-76
2021/12/10 03:15:10;;;;;;;0.63;0.63;;;2.80;99.90;;;;;;5074413;28;20190;-75
2021/12/10 03:17:37;;;;;;;0.93;0.68;;;2.80;99.90;;;;;;5074628;28;20214;-76
2021/12/10 03:20:09;;;;;;;0.50;0.50;;;2.90;99.90;;;;;;5074417;28;20201;-76
2021/12/10 03:22:37;;;;;;;0.40;0.40;;;2.80;99.90;;;;;;5074574;28;20575;-76
2021/12/10 03:25:05;;;;;;;0.50;0.50;;;2.80;99.90;;;;;;5074186;28;20201;-76
2021/12/10 03:27:31;;;;;;;0.50;0.45;;;2.80;99.90;;;;;;5074356;28;20233;-76
2021/12/10 03:29:58;;;;;;;1.40;1.15;;;2.70;99.90;;;;;;5074045;28;20218;-77
2021/12/10 03:32:30;;;;;;;0.40;0.40;;;2.70;99.90;;;;;;5074461;28;20198;-76
2021/12/10 03:34:58;;;;;;;0.50;0.47;;;2.70;99.90;;;;;;5074053;28;20600;-73
2021/12/10 03:37:26;;;;;;;1.40;0.60;;;2.70;99.90;;;;;;5074644;28;20229;-76
2021/12/10 03:39:54;;;;;;;0.50;0.50;;;2.80;99.90;;;;;;5073649;28;20614;-75
2021/12/10 03:42:22;;;;;;;0.40;0.40;;;2.80;99.90;;;;;;5074039;28;20198;-76
2021/12/10 03:44:49;;;;;;;0.40;0.40;;;2.70;99.90;;;;;;5074443;28;20198;-76
2021/12/10 03:47:16;;;;;;;0.52;0.52;;;2.70;99.90;;;;;;5074263;28;20217;-76
2021/12/10 03:49:44;;;;;;;0.40;0.40;;;2.80;99.90;;;;;;5073839;28;20205;-76
2021/12/10 03:52:11;;;;;;;1.50;0.88;;;2.80;99.90;;;;;;5074123;28;20225;-76
2021/12/10 03:54:39;;;;;;;0.82;0.82;;;2.70;99.90;;;;;;5074234;28;20205;-76
2021/12/10 03:57:07;;;;;;;0.70;0.70;;;2.80;99.90;;;;;;5073775;28;20221;-77
2021/12/10 03:59:36;;;;;;;0.40;0.40;;;2.70;99.90;;;;;;5073475;28;20198;-77
2021/12/10 04:02:06;;;;;;;0.50;0.50;;;2.80;99.90;;;;;;5073268;28;20230;-76
2021/12/10 04:04:35;;;;;;;0.50;0.40;;;2.80;99.90;;;;;;5073566;28;20198;-76
2021/12/10 04:07:09;;;;;;;1.35;0.70;;;2.80;99.90;;;;;;5073579;28;20214;-75
2021/12/10 04:09:35;;;;;;;2.17;0.82;;;2.80;99.90;;;;;;5073625;28;20201;-76
2021/12/10 04:12:03;;;;;;;0.50;0.40;;;2.70;99.90;;;;;;5073179;28;20213;-76
2021/12/10 04:14:30;;;;;;;0.40;0.40;;;2.80;99.90;;;;;;5073733;28;20659;-76
2021/12/10 04:16:58;;;;;;;0.40;0.40;;;2.80;99.90;;;;;;5073695;28;20210;-76
2021/12/10 04:19:27;;;;;;;0.50;0.40;;;2.80;99.90;;;;;;5072955;28;20202;-76
2021/12/10 04:21:56;;;;;;;0.50;0.50;;;2.80;99.90;;;;;;5073494;28;20194;-74
2021/12/10 04:24:29;;;;;;;4.57;2.25;;;2.80;99.90;;;;;;5073600;28;20288;-76
2021/12/10 04:26:57;;;;;;;0.50;0.40;;;2.80;99.90;;;;;;5073081;28;20987;-76
2021/12/10 04:29:24;;;;;;;0.40;0.40;;;2.80;99.90;;;;;;5073097;28;20197;-77
2021/12/10 04:31:53;;;;;;;0.40;0.40;;;2.70;99.90;;;;;;5072878;28;20244;-77
2021/12/10 04:34:21;;;;;;;0.40;0.40;;;2.70;99.90;;;;;;5073226;28;20194;-76
2021/12/10 04:36:49;;;;;;;0.50;0.40;;;2.70;99.90;;;;;;5073001;28;20730;-74
2021/12/10 04:39:16;;;;;;;1.13;1.13;;;2.70;99.90;;;;;;5072772;28;20190;-76
2021/12/10 04:41:44;;;;;;;0.40;0.40;;;2.60;99.90;;;;;;5073246;28;20197;-77
2021/12/10 04:44:11;;;;;;;0.50;0.40;;;2.70;99.90;;;;;;5073155;28;20194;-76
2021/12/10 04:46:38;;;;;;;0.40;0.40;;;2.60;99.90;;;;;;5073053;28;20214;-76
2021/12/10 04:49:07;;;;;;;0.40;0.40;;;2.70;99.90;;;;;;5072450;28;20209;-76
2021/12/10 04:51:37;;;;;;;0.40;0.40;;;2.70;99.90;;;;;;5072614;28;20213;-76
2021/12/10 04:54:07;;;;;;;6.35;0.82;;;2.80;99.90;;;;;;5071943;28;20693;-76
2021/12/10 04:56:34;;;;;;;0.40;0.40;;;2.70;99.90;;;;;;5072308;28;20210;-77
2021/12/10 04:59:05;;;;;;;0.40;0.40;;;2.80;99.90;;;;;;5072468;28;20574;-76
2021/12/10 05:01:32;;;;;;;0.40;0.40;;;2.80;99.90;;;;;;5072955;28;20212;-76
2021/12/10 05:03:59;;;;;;;0.45;0.40;;;2.70;99.90;;;;;;5072538;28;20204;-74
2021/12/10 05:06:25;;;;;;;0.50;0.40;;;2.80;99.90;;;;;;5072408;28;20213;-76
2021/12/10 05:08:52;;;;;;;0.50;0.40;;;2.80;99.90;;;;;;5072260;28;20847;-75
2021/12/10 05:11:19;;;;;;;0.40;0.40;;;2.80;99.90;;;;;;5072557;28;20213;-77
2021/12/10 05:13:48;;;;;;;0.50;0.45;;;2.80;99.90;;;;;;5073306;28;20204;-76
2021/12/10 05:16:24;;;;;;;0.50;0.40;;;2.80;99.90;;;;;;5072430;28;20217;-76
2021/12/10 05:18:56;;;;;;;0.50;0.40;;;2.90;99.90;;;;;;5071863;28;20182;-74
2021/12/10 05:21:24;;;;;;;0.50;0.40;;;2.80;99.90;;;;;;5072148;28;20193;-77
2021/12/10 05:23:52;;;;;;;0.50;0.40;;;2.80;99.90;;;;;;5072021;28;20193;-77
2021/12/10 05:26:19;;;;;;;0.50;0.40;;;2.90;99.90;;;;;;5072484;28;20245;-77
2021/12/10 05:28:46;;;;;;;0.45;0.40;;;2.90;99.90;;;;;;5072008;28;20202;-76
2021/12/10 05:31:13;;;;;;;0.40;0.40;;;2.90;99.90;;;;;;5072046;28;20209;-76
2021/12/10 05:33:41;;;;;;;0.47;0.40;;;2.90;99.90;;;;;;5072043;28;20200;-77
2021/12/10 05:36:08;;;;;;;0.50;0.40;;;2.90;99.90;;;;;;5071902;28;20218;-77
2021/12/10 05:38:35;;;;;;;0.50;0.50;;;2.90;99.90;;;;;;5072658;28;20220;-76
2021/12/10 05:41:06;;;;;;;0.50;0.50;;;2.90;99.90;;;;;;5071906;28;20212;-76
2021/12/10 05:43:33;;;;;;;0.50;0.50;;;3.00;99.90;;;;;;5071951;28;20196;-77
2021/12/10 05:46:00;;;;;;;0.40;0.40;;;3.00;99.90;;;;;;5071574;28;20673;-76
2021/12/10 05:48:28;;;;;;;0.50;0.40;;;3.00;99.90;;;;;;5071854;28;20194;-76
2021/12/10 05:50:58;;;;;;;0.50;0.40;;;3.00;99.90;;;;;;5071639;28;20222;-74
2021/12/10 05:53:25;;;;;;;0.50;0.40;;;3.00;99.90;;;;;;5071789;28;20228;-76
2021/12/10 05:55:52;;;;;;;1.02;0.88;;;3.00;99.90;;;;;;5071675;28;20194;-77
2021/12/10 05:58:21;;;;;;;0.50;0.40;;;3.00;99.90;;;;;;5061948;28;20209;-77
2021/12/10 06:00:51;;;;;;;0.50;0.40;;;3.00;99.90;;;;;;5065119;28;20260;-77
2021/12/10 06:03:18;;;;;;;0.50;0.40;;;3.00;99.90;;;;;;5060254;28;20407;-77
2021/12/10 06:05:46;;;;;;;0.50;0.50;;;3.00;99.90;;;;;;5058387;28;20194;-76
2021/12/10 06:08:16;;;;;;;0.50;0.40;;;3.00;99.90;;;;;;5051950;28;20201;-76
2021/12/10 06:10:45;;;;;;;0.50;0.40;;;3.00;99.90;;;;;;5051463;28;20193;-76
2021/12/10 06:13:11;;;;;;;2.15;0.50;;;3.00;99.90;;;;;;5051614;28;20191;-77
2021/12/10 06:15:39;;;;;;;0.50;0.50;;;3.00;99.90;;;;;;5061590;28;20201;-76
2021/12/10 06:18:07;;;;;;;0.40;0.40;;;3.10;99.90;;;;;;5055739;28;20214;-76
2021/12/10 06:20:35;;;;;;;0.50;0.40;;;3.10;99.90;;;;;;5051048;28;20568;-76
2021/12/10 06:23:01;;;;;;;0.50;0.40;;;3.10;99.90;;;;;;5051227;28;20271;-77
2021/12/10 06:25:31;;;;;;;0.50;0.40;;;3.00;99.90;;;;;;5051518;28;20213;-77
2021/12/10 06:27:59;;;;;;;0.47;0.40;;;3.00;99.90;;;;;;5050911;28;20222;-77
2021/12/10 06:30:30;;;;;;;3.88;0.70;;;3.00;99.90;;;;;;5050922;28;20206;-77
2021/12/10 06:32:58;;;;;;;0.50;0.50;;;3.00;99.90;;;;;;5051383;28;20234;-73
2021/12/10 06:35:27;;;;;;;0.50;0.40;;;3.00;99.90;;;;;;5051419;28;20202;-76
2021/12/10 06:37:54;;;;;;;0.50;0.40;;;3.00;99.90;;;;;;5050928;28;20222;-77
2021/12/10 06:40:24;;;;;;;0.50;0.40;;;3.00;99.90;;;;;;5050943;28;20202;-76
2021/12/10 06:42:52;;;;;;;0.50;0.40;;;3.00;99.90;;;;;;5051563;28;20183;-77
2021/12/10 06:45:25;;;;;;;0.50;0.40;;;3.00;99.90;;;;;;5051231;28;20628;-76
2021/12/10 06:47:55;;;;;;;0.50;0.40;;;3.00;99.90;;;;;;5050709;28;20245;-76
2021/12/10 06:50:25;;;;;;;0.50;0.40;;;2.90;99.90;;;;;;5051327;28;20198;-77
2021/12/10 06:52:52;;;;;;;0.50;0.40;;;2.90;99.90;;;;;;5078144;28;20247;-76
2021/12/10 06:55:19;;;;;;;0.50;0.50;;;2.90;99.90;;;;;;5068502;28;20201;-76
2021/12/10 06:57:46;;;;;;;2.55;1.90;;;3.00;99.90;;;;;;5050659;28;20214;-76
2021/12/10 07:00:22;;;;;;;1.23;0.93;;;3.00;99.90;;;;;;5050167;28;20203;-76
2021/12/10 07:02:49;;;;;;;0.50;0.47;;;3.00;99.90;;;;;;5050470;28;20285;-77
2021/12/10 07:05:17;;;;;;;0.50;0.40;;;3.00;99.90;;;;;;5050841;28;20195;-76
2021/12/10 07:07:47;;;;;;;0.50;0.40;;;3.00;99.90;;;;;;5050259;28;20217;-76
2021/12/10 07:10:18;;;;;;;0.50;0.40;;;3.00;99.90;;;;;;5050358;28;20206;-76
2021/12/10 07:12:46;;;;;;;0.60;0.50;;;3.00;99.90;;;;;;5050443;28;20225;-75
2021/12/10 07:15:17;;;;;;;0.50;0.40;;;3.10;99.90;;;;;;5050986;28;20683;-75
2021/12/10 07:17:46;;;;;;;0.50;0.50;;;3.10;99.90;;;;;;5054336;28;20225;-76
2021/12/10 07:20:14;;;;;;;0.50;0.40;;;3.10;99.90;;;;;;5052264;28;20195;-76
2021/12/10 07:22:41;;;;;;;0.50;0.40;;;3.00;99.90;;;;;;5063704;28;20201;-74
2021/12/10 07:25:09;;;;;;;0.50;0.40;;;3.10;99.90;;;;;;5054130;28;20679;-75
2021/12/10 07:27:35;;;;;;;0.50;0.45;;;3.10;99.90;;;;;;5056419;28;20229;-76
2021/12/10 07:30:04;;;;;;;0.50;0.50;;;3.10;99.90;;;;;;5053567;28;20206;-75
2021/12/10 07:32:32;;;;;;;4.97;2.17;;;3.10;99.90;;;;;;5053576;28;20211;-75
2021/12/10 07:34:59;;;;;;;0.50;0.40;;;3.10;99.90;;;;;;5054040;28;20612;-75
2021/12/10 07:37:26;;;;;;;0.73;0.73;;;3.10;99.90;;;;;;5054304;28;20222;-77
2021/12/10 07:39:53;;;;;;;0.50;0.40;;;3.20;99.90;;;;;;5053774;28;20209;-74
2021/12/10 07:42:19;;;;;;;2.78;0.73;;;3.20;99.90;;;;;;5052389;28;20201;-75
2021/12/10 07:44:46;;;;;;;0.50;0.40;;;3.30;99.90;;;;;;5053396;28;20206;-75
2021/12/10 07:47:14;;;;;;;0.50;0.40;;;3.30;99.90;;;;;;5053891;28;20246;-75
2021/12/10 07:49:44;;;;;;;5.07;2.47;;;3.30;99.90;;;;;;5053732;28;20277;-76
2021/12/10 07:52:18;;;;;;;0.50;0.40;;;3.40;99.90;;;;;;5053666;28;20207;-74
2021/12/10 07:54:47;;;;;;;0.50;0.40;;;3.40;99.90;;;;;;5053890;28;20339;-75
2021/12/10 07:57:16;;;;;;;0.50;0.50;;;3.40;99.90;;;;;;5053889;28;20219;-75
2021/12/10 07:59:42;;;;;;;0.50;0.40;;;3.50;99.90;;;;;;5053711;28;20285;-75
2021/12/10 08:02:09;;;;;;;1.27;0.70;;;3.50;99.90;;;;;;5052809;28;20688;-76
2021/12/10 08:04:37;;;;;;;0.50;0.40;;;3.50;99.90;;;;;;5053459;28;20202;-75
2021/12/10 08:07:06;;;;;;;0.50;0.40;;;3.60;99.90;;;;;;5053788;28;20218;-75
2021/12/10 08:09:33;;;;;;;0.50;0.40;;;3.70;99.90;;;;;;5053720;28;20198;-75
2021/12/10 08:12:00;;;;;;;0.50;0.50;;;3.80;99.90;;;;;;5052882;28;20210;-75
2021/12/10 08:14:27;;;;;;;1.05;0.95;;;3.90;99.90;;;;;;5053572;28;20195;-75
2021/12/10 08:16:54;;;;;;;0.98;0.70;;;3.90;99.90;;;;;;5053477;28;20244;-75
2021/12/10 08:19:20;;;;;;;0.50;0.40;;;3.90;99.90;;;;;;5053131;28;20208;-75
2021/12/10 08:21:47;;;;;;;0.50;0.40;;;3.90;99.90;;;;;;5053269;28;20572;-75
2021/12/10 08:24:15;;;;;;;0.50;0.40;;;3.90;99.90;;;;;;5053150;28;20668;-75
2021/12/10 08:26:42;;;;;;;0.50;0.40;;;4.00;99.90;;;;;;5051958;28;20230;-75
2021/12/10 08:29:10;;;;;;;0.50;0.40;;;4.00;99.90;;;;;;5050722;28;20210;-76
2021/12/10 08:31:38;;;;;;;0.60;0.60;;;4.00;99.90;;;;;;5062896;28;20531;-75
2021/12/10 08:34:05;;;;;;;2.25;2.10;;;4.00;99.90;;;;;;5072925;28;20185;-75
2021/12/10 08:36:33;;;;;;;0.50;0.40;;;4.10;99.90;;;;;;5072643;28;20206;-76
2021/12/10 08:39:00;;;;;;;0.98;0.88;;;4.20;99.90;;;;;;5072940;28;20194;-76
2021/12/10 08:41:33;;;;;;;0.50;0.40;;;4.20;99.90;;;;;;5072967;28;20202;-76
2021/12/10 08:44:01;;;;;;;0.60;0.50;;;4.20;99.90;;;;;;5073081;28;20186;-74
2021/12/10 08:46:29;;;;;;;0.50;0.40;;;4.30;99.90;;;;;;5072865;28;20217;-78
2021/12/10 08:48:59;;;;;;;0.50;0.40;;;4.40;99.90;;;;;;5072890;28;20224;-78
2021/12/10 08:51:31;;;;;;;1.40;1.40;;;4.50;99.90;;;;;;5072812;28;20201;-77
2021/12/10 08:54:00;;;;;;;0.50;0.40;;;4.70;99.90;;;;;;5073090;28;20204;-77
2021/12/10 08:56:28;;;;;;;0.50;0.40;;;4.90;99.90;;;;;;5072564;28;20221;-77
2021/12/10 08:58:58;;;;;;;0.50;0.40;;;5.10;99.90;;;;;;5072591;28;20209;-76
2021/12/10 09:01:29;;;;;;;0.50;0.40;;;5.30;99.90;;;;;;5072289;28;20212;-77
2021/12/10 09:03:58;;;;;;;0.50;0.40;;;5.20;99.90;;;;;;5072187;28;20194;-78
2021/12/10 09:06:31;;;;;;;0.50;0.40;;;5.40;99.90;;;;;;5072478;28;20209;-77
2021/12/10 09:08:58;;;;;;;1.05;1.05;;;5.30;99.90;;;;;;5072487;28;20201;-75
2021/12/10 09:11:26;;;;;;;0.50;0.50;;;5.30;99.90;;;;;;5072524;28;20197;-77
2021/12/10 09:13:55;;;;;;;2.15;0.57;;;5.40;99.90;;;;;;5071782;28;20691;-78
2021/12/10 09:16:26;;;;;;;0.60;0.40;;;5.50;99.90;;;;;;5072352;28;20214;-76
2021/12/10 09:18:57;;;;;;;0.50;0.40;;;5.60;99.90;;;;;;5072006;28;20628;-75
2021/12/10 09:21:24;;;;;;;0.50;0.40;;;5.70;99.90;;;;;;5072500;28;20247;-77
2021/12/10 09:23:53;;;;;;;0.50;0.40;;;5.70;99.90;;;;;;5072242;28;20210;-77
2021/12/10 09:26:25;;;;;;;0.50;0.40;;;5.80;99.90;;;;;;5071736;28;20225;-77
2021/12/10 09:28:52;;;;;;;0.63;0.63;;;6.00;99.90;;;;;;5071349;28;20606;-72
2021/12/10 09:31:24;;;;;;;0.50;0.50;;;6.00;99.90;;;;;;5072145;28;20510;-76
2021/12/10 09:33:52;;;;;;;0.50;0.40;;;5.90;99.90;;;;;;5071689;28;20457;-76
2021/12/10 09:36:19;;;;;;;1.13;0.68;;;5.70;99.90;;;;;;5060068;28;20225;-76
2021/12/10 09:38:46;;;;;;;0.50;0.40;;;5.50;99.90;;;;;;5050790;28;20195;-75
2021/12/10 09:41:14;;;;;;;0.60;0.60;;;5.40;99.90;;;;;;5050368;28;20205;-76
2021/12/10 09:43:42;;;;;;;0.50;0.50;;;5.30;99.90;;;;;;5051445;28;20515;-77
2021/12/10 09:46:11;;;;;;;0.50;0.40;;;5.20;99.90;;;;;;5054203;28;20581;-76
2021/12/10 09:48:41;;;;;;;0.50;0.40;;;5.10;99.90;;;;;;5053445;28;20197;-76
2021/12/10 09:51:11;;;;;;;0.50;0.40;;;5.20;99.90;;;;;;5052296;28;20198;-76
2021/12/10 09:53:41;;;;;;;0.50;0.40;;;5.60;99.90;;;;;;5052493;28;20596;-75
2021/12/10 09:56:09;;;;;;;0.50;0.40;;;5.80;99.90;;;;;;5051852;28;20247;-76
2021/12/10 09:58:37;;;;;;;0.50;0.40;;;6.20;99.90;;;;;;5051762;28;20226;-76
2021/12/10 10:01:10;;;;;;;0.50;0.40;;;6.60;99.90;;;;;;5052064;28;20198;-77
2021/12/10 10:03:41;;;;;;;0.55;0.52;;;6.80;99.90;;;;;;5051779;28;20261;-76
2021/12/10 10:06:10;;;;;;;0.50;0.40;;;6.80;99.90;;;;;;5051923;28;20596;-76
2021/12/10 10:08:37;;;;;;;3.60;0.65;;;6.70;99.90;;;;;;5051808;28;20622;-76
2021/12/10 10:11:09;;;;;;;0.50;0.40;;;6.70;99.90;;;;;;5052188;28;20703;-76
2021/12/10 10:13:39;;;;;;;0.85;0.85;;;6.70;99.90;;;;;;5050874;28;20654;-76
2021/12/10 10:16:08;;;;;;;0.50;0.40;;;6.80;99.90;;;;;;5051601;28;20201;-78
2021/12/10 10:18:37;;;;;;;0.50;0.40;;;7.10;99.90;;;;;;5051078;28;20196;-77
2021/12/10 10:21:08;;;;;;;0.50;0.40;;;7.30;99.90;;;;;;5051435;28;20545;-76
2021/12/10 10:23:37;;;;;;;0.85;0.60;;;7.40;99.90;;;;;;5051517;28;20184;-76
2021/12/10 10:26:08;;;;;;;0.60;0.60;;;7.30;99.90;;;;;;5051123;28;20272;-77
2021/12/10 10:28:36;;;;;;;0.60;0.60;;;7.40;99.90;;;;;;5050973;28;20189;-78
2021/12/10 10:31:08;;;;;;;0.50;0.40;;;7.30;99.90;;;;;;5051042;28;20281;-75
2021/12/10 10:33:37;;;;;;;0.50;0.40;;;7.60;99.90;;;;;;5051089;28;20706;-77
2021/12/10 10:36:11;;;;;;;0.50;0.40;;;8.00;99.90;;;;;;5051447;28;20295;-77
2021/12/10 10:38:39;;;;;;;11.82;2.05;;;8.20;99.90;;;;;;5051153;28;20291;-76
2021/12/10 10:41:09;;;;;;;0.50;0.40;;;8.10;99.90;;;;;;5050906;28;20237;-77
2021/12/10 10:43:36;;;;;;;0.50;0.40;;;7.80;99.90;;;;;;5051407;28;20198;-76
2021/12/10 10:46:04;;;;;;;0.50;0.50;;;7.80;99.90;;;;;;5051045;28;20202;-76
2021/12/10 10:48:31;;;;;;;0.50;0.40;;;7.60;99.90;;;;;;5051142;28;20252;-77
2021/12/10 10:51:00;;;;;;;0.50;0.40;;;7.20;99.90;;;;;;5051819;28;20201;-75
2021/12/10 10:53:32;;;;;;;0.50;0.40;;;7.20;99.90;;;;;;5054944;28;20221;-77
2021/12/10 10:56:03;;;;;;;0.50;0.40;;;7.40;99.90;;;;;;5055275;28;20282;-77
2021/12/10 10:58:42;;;;;;;0.50;0.40;;;7.60;99.90;;;;;;5054577;28;20209;-76
2021/12/10 11:01:21;;;;;;;0.50;0.40;;;7.50;99.90;;;;;;5054847;28;20203;-77
2021/12/10 11:03:53;;;;;;;0.50;0.40;;;7.40;99.90;;;;;;5054854;28;20653;-76
2021/12/10 11:06:26;;;;;;;2.70;0.88;;;7.40;99.90;;;;;;5054288;28;20222;-77
2021/12/10 11:08:56;;;;;;;0.50;0.45;;;7.60;99.90;;;;;;5054595;28;20271;-73
2021/12/10 11:11:25;;;;;;;0.50;0.40;;;7.60;99.90;;;;;;5054537;28;20550;-76
2021/12/10 11:14:01;;;;;;;0.50;0.40;;;7.60;99.90;;;;;;5054496;28;20743;-77
2021/12/10 11:16:30;;;;;;;0.50;0.40;;;7.50;99.90;;;;;;5054144;28;20250;-77
2021/12/10 11:19:10;;;;;;;0.50;0.40;;;7.30;99.90;;;;;;5054029;28;20299;-74
2021/12/10 11:21:42;;;;;;;0.50;0.40;;;7.30;99.90;;;;;;5054829;28;20205;-77
2021/12/10 11:24:19;;;;;;;0.50;0.50;;;7.20;99.90;;;;;;5054775;28;20280;-77
2021/12/10 11:26:51;;;;;;;0.50;0.40;;;6.90;99.90;;;;;;5054209;28;20233;-76
2021/12/10 11:29:36;;;;;;;0.50;0.40;;;6.40;99.90;;;;;;5054139;28;20199;-76
2021/12/10 11:32:06;;;;;;;0.50;0.40;;;6.40;99.90;;;;;;5054309;28;20194;-77
2021/12/10 11:34:51;;;;;;;0.50;0.40;;;6.50;99.90;;;;;;5054298;28;20219;-77
2021/12/10 11:37:41;;;;;;;0.50;0.40;;;6.70;99.90;;;;;;5054201;28;20720;-77
2021/12/10 11:40:27;;;;;;;0.50;0.50;;;6.90;99.90;;;;;;5054069;28;20224;-77
2021/12/10 11:42:59;;;;;;;0.50;0.40;;;6.70;99.90;;;;;;5054098;28;20200;-77
2021/12/10 11:45:40;;;;;;;0.50;0.40;;;6.60;99.90;;;;;;5054766;28;20235;-78
2021/12/10 11:48:11;;;;;;;0.50;0.40;;;6.70;99.90;;;;;;5054126;28;20228;-77
2021/12/10 11:50:42;;;;;;;0.50;0.40;;;6.60;99.90;;;;;;5053256;28;20176;-76
2021/12/10 11:53:13;;;;;;;0.60;0.60;;;6.60;99.90;;;;;;5053632;28;20256;-77
2021/12/10 11:55:56;;;;;;;0.50;0.40;;;6.50;99.90;;;;;;5054271;28;20273;-76
2021/12/10 11:58:23;;;;;;;0.50;0.40;;;6.50;99.90;;;;;;5053751;28;20283;-77
2021/12/10 12:00:51;;;;;;;0.50;0.40;;;6.50;99.90;;;;;;5053657;28;20203;-76
2021/12/10 12:03:20;;;;;;;0.50;0.50;;;6.40;99.90;;;;;;5053783;28;20193;-77
2021/12/10 12:05:48;;;;;;;0.50;0.40;;;6.30;99.90;;;;;;5053575;28;20223;-76
2021/12/10 12:08:18;;;;;;;0.50;0.40;;;6.30;99.90;;;;;;5053770;28;20226;-76
2021/12/10 12:10:49;;;;;;;0.50;0.40;;;6.30;99.90;;;;;;5053396;28;20218;-74
2021/12/10 12:13:25;;;;;;;0.50;0.40;;;6.30;99.90;;;;;;5053550;28;20219;-77
2021/12/10 12:15:55;;;;;;;0.50;0.40;;;6.20;99.90;;;;;;5053376;28;20219;-76
2021/12/10 12:18:26;;;;;;;0.50;0.40;;;6.10;99.90;;;;;;5053148;28;20204;-77
2021/12/10 12:20:56;;;;;;;0.50;0.40;;;6.10;99.90;;;;;;5053011;28;20178;-77
2021/12/10 12:26:15;;;;;;;0.50;0.40;;;6.10;99.90;;;;;;5053266;28;20761;-76
2021/12/10 12:28:45;;;;;;;0.50;0.50;;;6.20;99.90;;;;;;5053000;28;20203;-76
2021/12/10 12:31:14;;;;;;;0.50;0.50;;;6.20;99.90;;;;;;5052993;28;20284;-77
2021/12/10 12:34:00;;;;;;;0.50;0.40;;;6.00;99.90;;;;;;5052542;28;20219;-77
2021/12/10 12:36:31;;;;;;;0.50;0.40;;;6.10;99.90;;;;;;5053408;28;20219;-76
2021/12/10 12:38:58;;;;;;;0.95;0.95;;;6.10;99.90;;;;;;5052699;28;20296;-73
2021/12/10 12:41:30;;;;;;;0.50;0.40;;;6.10;99.90;;;;;;5053052;28;20198;-76
2021/12/10 12:44:26;;;;;;;0.50;0.40;;;6.10;99.90;;;;;;5052844;28;20171;-77
2021/12/10 12:47:08;;;;;;;0.50;0.40;;;6.10;99.90;;;;;;4995834;28;20230;-75
2021/12/10 12:50:02;;;;;;;0.50;0.40;;;6.10;99.90;;;;;;5052468;28;20186;-76
2021/12/10 12:52:35;;;;;;;0.50;0.40;;;5.90;99.90;;;;;;5052978;28;20227;-76
2021/12/10 12:55:25;;;;;;;0.50;0.40;;;5.80;99.90;;;;;;5052590;28;20538;-77
2021/12/10 12:57:57;;;;;;;0.50;0.40;;;5.90;99.90;;;;;;5052028;28;20215;-72
2021/12/10 13:00:29;;;;;;;0.82;0.82;;;5.80;99.90;;;;;;5052309;28;20184;-76
2021/12/10 13:03:01;;;;;;;0.50;0.40;;;5.70;99.90;;;;;;5052849;28;20552;-77
2021/12/10 13:05:35;;;;;;;0.50;0.40;;;5.70;99.90;;;;;;5052765;28;20251;-76
2021/12/10 13:08:08;;;;;;;0.50;0.40;;;5.80;99.90;;;;;;5052695;28;20216;-77
2021/12/10 13:10:38;;;;;;;0.50;0.40;;;5.90;99.90;;;;;;5051951;28;20648;-77
2021/12/10 13:13:12;;;;;;;0.50;0.40;;;5.90;99.90;;;;;;5052098;28;20183;-76
2021/12/10 13:15:39;;;;;;;0.50;0.40;;;5.90;99.90;;;;;;5052677;28;20611;-74
2021/12/10 13:18:12;;;;;;;0.80;0.50;;;5.80;99.90;;;;;;5052011;28;20257;-77
2021/12/10 13:20:45;;;;;;;0.50;0.40;;;5.70;99.90;;;;;;5051869;28;20195;-77
2021/12/10 13:23:15;;;;;;;0.50;0.50;;;5.80;99.90;;;;;;5052309;28;20202;-77